Time;durP1;ratioP1;P1;durP2;ratioP2;P2;SDS_P1;SDS_P2;PMS_P1;PMS_P2;Temp;Humidity;BMP_temperature;BMP_pressure;BME280_temperature;BME280_humidity;BME280_pressure;Samples;Min_cycle;Max_cycle;Signal;HPM_P1;HPM_P2
2023/02/01 00:00:53;;;;;;;8.00;6.20;;;3.50;99.90;;;;;;5025961;28;20186;-75
2023/02/01 00:03:19;;;;;;;9.90;6.50;;;3.40;99.90;;;;;;5021179;28;20240;-73
2023/02/01 00:05:54;;;;;;;7.87;6.20;;;3.40;99.90;;;;;;5027337;28;20214;-75
2023/02/01 00:08:19;;;;;;;8.17;7.00;;;3.40;99.90;;;;;;5034037;28;20220;-75
2023/02/01 00:10:44;;;;;;;9.13;6.53;;;3.40;99.90;;;;;;5029278;28;20520;-74
2023/02/01 00:13:10;;;;;;;8.93;6.07;;;3.40;99.90;;;;;;5035855;28;20178;-74
2023/02/01 00:15:35;;;;;;;6.43;5.83;;;3.50;99.90;;;;;;5025735;28;20185;-75
2023/02/01 00:18:01;;;;;;;8.47;6.20;;;3.40;99.90;;;;;;5026171;28;20205;-75
2023/02/01 00:20:26;;;;;;;8.33;6.20;;;3.40;99.90;;;;;;5024660;28;20554;-75
2023/02/01 00:22:52;;;;;;;6.73;5.30;;;3.40;99.90;;;;;;5032994;28;20178;-75
2023/02/01 00:25:17;;;;;;;8.43;6.23;;;3.40;99.90;;;;;;5032352;28;20182;-75
2023/02/01 00:27:43;;;;;;;7.93;5.83;;;3.40;99.90;;;;;;5033990;28;20291;-75
2023/02/01 00:30:09;;;;;;;9.03;5.90;;;3.50;99.90;;;;;;5033551;28;20664;-75
2023/02/01 00:32:35;;;;;;;8.33;6.53;;;3.50;99.90;;;;;;5026365;28;20182;-75
2023/02/01 00:35:01;;;;;;;5.53;5.03;;;3.40;99.90;;;;;;5030251;28;20814;-74
2023/02/01 00:37:26;;;;;;;6.33;5.13;;;3.40;99.90;;;;;;5022363;28;20181;-74
2023/02/01 00:39:54;;;;;;;5.97;5.07;;;3.50;99.90;;;;;;5021139;28;20221;-76
2023/02/01 00:42:20;;;;;;;7.00;5.60;;;3.50;99.90;;;;;;5024528;28;20201;-75
2023/02/01 00:44:45;;;;;;;8.63;5.30;;;3.50;99.90;;;;;;5025254;28;20472;-75
2023/02/01 00:47:11;;;;;;;7.10;5.10;;;3.50;99.90;;;;;;5025449;28;20176;-73
2023/02/01 00:49:36;;;;;;;6.83;4.40;;;3.50;99.90;;;;;;5027948;28;20212;-75
2023/02/01 00:52:02;;;;;;;8.30;4.53;;;3.50;99.90;;;;;;5028066;28;20179;-75
2023/02/01 00:54:28;;;;;;;4.90;4.33;;;3.60;99.90;;;;;;5030716;28;20190;-75
2023/02/01 00:56:53;;;;;;;5.67;4.27;;;3.50;99.90;;;;;;5030445;28;20243;-75
2023/02/01 00:59:19;;;;;;;7.90;5.40;;;3.50;99.90;;;;;;5016848;28;20700;-74
2023/02/01 01:01:44;;;;;;;6.77;4.47;;;3.60;99.90;;;;;;5021957;28;20707;-75
2023/02/01 01:04:10;;;;;;;6.47;4.07;;;3.50;99.90;;;;;;5023036;28;21031;-75
2023/02/01 01:06:35;;;;;;;5.00;4.40;;;3.60;99.90;;;;;;5027179;28;20187;-75
2023/02/01 01:09:04;;;;;;;5.33;4.80;;;3.60;99.90;;;;;;5032822;28;20198;-76
2023/02/01 01:11:32;;;;;;;5.93;4.57;;;3.60;99.90;;;;;;5023734;28;20257;-75
2023/02/01 01:13:59;;;;;;;5.83;3.30;;;3.60;99.90;;;;;;5027418;28;20781;-75
2023/02/01 01:16:26;;;;;;;6.27;4.13;;;3.60;99.90;;;;;;5030522;28;20476;-76
2023/02/01 01:18:52;;;;;;;4.90;4.00;;;3.60;99.90;;;;;;5028401;28;21010;-74
2023/02/01 01:21:18;;;;;;;4.00;3.53;;;3.60;99.90;;;;;;5026010;28;20437;-75
2023/02/01 01:23:44;;;;;;;5.43;4.63;;;3.60;99.90;;;;;;5029458;28;20932;-74
2023/02/01 01:26:15;;;;;;;4.00;3.60;;;3.60;99.90;;;;;;5026303;28;20453;-73
2023/02/01 01:28:40;;;;;;;6.50;5.03;;;3.60;99.90;;;;;;5033040;28;20490;-75
2023/02/01 01:31:10;;;;;;;4.30;3.90;;;3.60;99.90;;;;;;5030664;28;20441;-75
2023/02/01 01:33:36;;;;;;;3.57;3.20;;;3.50;99.90;;;;;;5026091;28;20558;-75
2023/02/01 01:36:04;;;;;;;4.23;3.83;;;3.60;99.90;;;;;;5031435;28;20441;-75
2023/02/01 01:38:29;;;;;;;6.80;3.40;;;3.60;99.90;;;;;;5031325;28;20495;-76
2023/02/01 01:40:55;;;;;;;5.83;3.40;;;3.60;99.90;;;;;;5036191;28;20448;-75
2023/02/01 01:43:23;;;;;;;4.77;3.43;;;3.60;99.90;;;;;;5029343;28;20600;-75
2023/02/01 01:45:50;;;;;;;3.67;3.37;;;3.60;99.90;;;;;;5017029;28;20696;-74
2023/02/01 01:48:29;;;;;;;3.17;2.87;;;3.70;99.90;;;;;;5028941;28;20507;-75
2023/02/01 01:51:05;;;;;;;4.13;3.17;;;3.70;99.90;;;;;;5027985;28;20479;-75
2023/02/01 01:53:36;;;;;;;4.03;3.63;;;3.70;99.90;;;;;;5029337;28;20444;-75
2023/02/01 01:56:01;;;;;;;4.53;3.37;;;3.70;99.90;;;;;;5024750;28;20918;-74
2023/02/01 01:58:30;;;;;;;3.37;3.07;;;3.70;99.90;;;;;;5024447;28;20475;-75
2023/02/01 02:00:56;;;;;;;3.70;3.40;;;3.70;99.90;;;;;;5020085;28;20558;-74
2023/02/01 02:03:23;;;;;;;4.43;3.30;;;3.70;99.90;;;;;;5020531;28;20442;-75
2023/02/01 02:05:51;;;;;;;5.00;4.20;;;3.70;99.90;;;;;;5024949;28;20217;-75
2023/02/01 02:08:20;;;;;;;7.90;3.37;;;3.80;99.90;;;;;;5028805;28;20465;-74
2023/02/01 02:11:02;;;;;;;5.13;3.77;;;3.80;99.90;;;;;;5025743;28;20449;-75
2023/02/01 02:13:34;;;;;;;3.53;3.17;;;3.80;99.90;;;;;;5023022;28;21046;-75
2023/02/01 02:16:17;;;;;;;4.17;3.70;;;3.80;99.90;;;;;;5030875;28;20436;-74
2023/02/01 02:19:05;;;;;;;4.10;3.70;;;3.80;99.90;;;;;;5026624;28;20495;-75
2023/02/01 02:21:40;;;;;;;3.90;3.50;;;3.80;99.90;;;;;;5022836;28;21007;-74
2023/02/01 02:24:30;;;;;;;4.27;3.83;;;3.80;99.90;;;;;;5026593;28;20432;-74
2023/02/01 02:27:26;;;;;;;3.87;3.47;;;3.80;99.90;;;;;;5018718;28;20502;-73
2023/02/01 02:30:22;;;;;;;4.33;3.37;;;3.80;99.90;;;;;;5019692;28;20975;-75
2023/02/01 02:33:35;;;;;;;5.43;3.57;;;3.80;99.90;;;;;;5022263;28;20524;-75
2023/02/01 02:36:10;;;;;;;5.30;4.80;;;3.90;99.90;;;;;;5025301;28;20441;-75
2023/02/01 02:38:52;;;;;;;4.07;3.67;;;3.90;99.90;;;;;;5027185;28;20476;-75
2023/02/01 02:47:24;;;;;;;3.47;3.17;;;3.80;99.90;;;;;;5036019;28;20436;-75
2023/02/01 02:55:45;;;;;;;4.33;3.90;;;3.90;99.90;;;;;;5024284;28;20459;-74
2023/02/01 03:04:08;;;;;;;4.53;4.13;;;3.80;99.90;;;;;;5029039;28;20471;-76
2023/02/01 03:06:34;;;;;;;6.00;3.80;;;3.80;99.90;;;;;;5024776;28;20451;-75
2023/02/01 03:09:04;;;;;;;6.77;3.73;;;3.70;99.90;;;;;;5026068;28;20475;-75
2023/02/01 03:12:55;;;;;;;4.67;3.80;;;3.70;99.90;;;;;;5020152;28;20453;-74
2023/02/01 03:14:21;;;;;;;4.87;3.90;;;3.70;99.90;;;;;;5027831;28;20443;-75
2023/02/01 03:17:07;;;;;;;4.57;4.10;;;3.70;99.90;;;;;;5023377;28;20447;-74
2023/02/01 03:19:43;;;;;;;6.70;4.80;;;3.70;99.90;;;;;;5028267;28;20464;-73
2023/02/01 03:22:12;;;;;;;5.20;4.47;;;3.70;99.90;;;;;;5013210;28;20450;-74
2023/02/01 03:24:40;;;;;;;4.53;4.13;;;3.80;99.90;;;;;;5021459;28;20437;-75
2023/02/01 03:27:30;;;;;;;5.23;4.77;;;3.70;99.90;;;;;;5024165;28;20534;-75
2023/02/01 03:30:23;;;;;;;4.90;4.40;;;3.80;99.90;;;;;;5025436;28;20444;-74
2023/02/01 03:33:00;;;;;;;4.23;3.83;;;3.80;99.90;;;;;;5024371;28;20436;-74
2023/02/01 03:35:43;;;;;;;5.20;4.30;;;3.80;99.90;;;;;;5028660;28;20441;-73
2023/02/01 03:38:41;;;;;;;4.93;4.30;;;3.80;99.90;;;;;;5023479;28;20453;-73
2023/02/01 03:41:09;;;;;;;4.67;4.03;;;3.80;99.90;;;;;;5010869;28;20844;-74
2023/02/01 03:43:59;;;;;;;6.47;5.23;;;3.80;99.90;;;;;;5026213;28;20429;-74
2023/02/01 03:46:41;;;;;;;5.03;4.50;;;3.80;99.90;;;;;;5018591;28;20450;-74
2023/02/01 03:49:10;;;;;;;5.07;4.13;;;3.70;99.90;;;;;;5026317;28;20472;-75
2023/02/01 03:51:40;;;;;;;5.40;4.30;;;3.60;99.90;;;;;;5020235;28;20446;-75
2023/02/01 03:54:09;;;;;;;5.63;4.97;;;3.60;99.90;;;;;;5021056;28;20437;-74
2023/02/01 03:56:37;;;;;;;6.60;5.00;;;3.60;99.90;;;;;;5026388;28;20456;-75
2023/02/01 03:59:03;;;;;;;5.50;4.40;;;3.70;99.90;;;;;;5033017;28;20470;-75
2023/02/01 04:01:30;;;;;;;9.03;4.50;;;3.70;99.90;;;;;;5023616;28;20482;-75
2023/02/01 04:03:57;;;;;;;4.70;4.10;;;3.70;99.90;;;;;;5027806;28;20190;-75
2023/02/01 04:06:23;;;;;;;4.70;4.20;;;3.70;99.90;;;;;;5032369;28;20438;-74
2023/02/01 04:08:48;;;;;;;4.73;4.10;;;3.70;99.90;;;;;;5026307;28;20498;-75
2023/02/01 04:11:14;;;;;;;4.03;3.63;;;3.70;99.90;;;;;;5030905;28;20678;-75
2023/02/01 04:13:40;;;;;;;5.50;4.20;;;3.70;99.90;;;;;;5030640;28;20256;-74
2023/02/01 04:16:06;;;;;;;7.00;4.80;;;3.70;99.90;;;;;;5030629;28;20193;-75
2023/02/01 04:18:31;;;;;;;6.70;4.90;;;3.70;99.90;;;;;;5034922;28;20208;-73
2023/02/01 04:20:57;;;;;;;4.60;4.17;;;3.70;99.90;;;;;;5029880;28;20174;-75
2023/02/01 04:23:22;;;;;;;4.13;3.70;;;3.70;99.90;;;;;;5014821;28;20178;-74
2023/02/01 04:25:48;;;;;;;5.27;3.57;;;3.70;99.90;;;;;;5022011;28;20635;-74
2023/02/01 04:28:13;;;;;;;5.00;4.13;;;3.80;99.90;;;;;;5025788;28;20201;-75
2023/02/01 04:30:39;;;;;;;4.73;4.23;;;3.80;99.90;;;;;;5034077;28;20202;-75
2023/02/01 04:33:07;;;;;;;4.50;3.90;;;3.90;99.90;;;;;;5033103;28;20193;-74
2023/02/01 04:35:33;;;;;;;4.67;4.23;;;3.90;99.90;;;;;;5029604;28;20266;-75
2023/02/01 04:37:59;;;;;;;3.80;3.43;;;3.90;99.90;;;;;;5035374;28;21058;-75
2023/02/01 04:40:25;;;;;;;4.27;3.67;;;3.90;99.90;;;;;;5027847;28;20178;-74
2023/02/01 04:42:50;;;;;;;4.77;4.27;;;3.90;99.90;;;;;;5027282;28;20942;-73
2023/02/01 04:45:16;;;;;;;4.93;3.90;;;3.90;99.90;;;;;;5026118;28;20710;-74
2023/02/01 04:47:42;;;;;;;3.97;3.57;;;4.00;99.90;;;;;;5032064;28;20538;-74
2023/02/01 04:50:10;;;;;;;3.87;3.47;;;3.90;99.90;;;;;;5033005;28;20433;-74
2023/02/01 04:52:36;;;;;;;4.30;3.90;;;4.00;99.90;;;;;;5028256;28;20174;-75
2023/02/01 04:55:02;;;;;;;3.97;3.53;;;4.00;99.90;;;;;;5034119;28;20436;-74
2023/02/01 04:57:28;;;;;;;4.37;3.53;;;4.10;99.90;;;;;;5026178;28;20874;-75
2023/02/01 04:59:54;;;;;;;3.83;3.30;;;4.20;99.90;;;;;;5030956;28;20591;-75
2023/02/01 05:02:19;;;;;;;4.00;3.60;;;4.10;99.90;;;;;;5027140;28;20237;-74
2023/02/01 05:04:45;;;;;;;4.10;2.83;;;4.20;99.90;;;;;;5029170;28;20209;-74
2023/02/01 05:07:10;;;;;;;3.60;3.23;;;4.10;99.90;;;;;;5022431;28;20181;-73
2023/02/01 05:09:36;;;;;;;5.00;3.20;;;4.20;99.90;;;;;;5025762;28;20715;-74
2023/02/01 05:14:45;;;;;;;4.20;3.33;;;4.10;99.90;;;;;;5027090;28;20312;-73
2023/02/01 05:17:11;;;;;;;4.20;3.40;;;4.20;99.90;;;;;;5032837;28;20472;-73
2023/02/01 05:19:36;;;;;;;4.03;3.63;;;4.20;99.90;;;;;;5032514;28;20205;-72
2023/02/01 05:22:02;;;;;;;3.50;3.13;;;4.20;99.90;;;;;;5041749;28;20162;-72
2023/02/01 05:24:27;;;;;;;4.53;3.53;;;4.20;99.90;;;;;;5022307;28;20221;-72
2023/02/01 05:26:53;;;;;;;4.60;3.03;;;4.20;99.90;;;;;;5021277;28;20186;-72
2023/02/01 05:29:19;;;;;;;4.53;3.07;;;4.20;99.90;;;;;;5022651;28;20594;-73
2023/02/01 05:31:45;;;;;;;6.73;3.93;;;4.30;99.90;;;;;;5015088;28;20174;-72
2023/02/01 05:34:12;;;;;;;4.50;3.27;;;4.30;99.90;;;;;;5022846;28;20445;-72
2023/02/01 05:36:37;;;;;;;3.80;3.50;;;4.20;99.90;;;;;;5023697;28;20543;-73
2023/02/01 05:39:03;;;;;;;3.40;3.10;;;4.20;99.90;;;;;;5025671;28;20551;-72
2023/02/01 05:41:29;;;;;;;3.20;2.90;;;4.30;99.90;;;;;;5031292;28;20201;-73
2023/02/01 05:43:54;;;;;;;3.80;3.50;;;4.20;99.90;;;;;;5015709;28;20183;-72
2023/02/01 05:46:20;;;;;;;3.23;2.93;;;4.20;99.90;;;;;;5018043;28;20190;-72
2023/02/01 05:48:45;;;;;;;4.00;3.00;;;4.10;99.90;;;;;;5022168;28;20194;-72
2023/02/01 05:51:11;;;;;;;3.13;2.70;;;4.10;99.90;;;;;;5032514;28;20213;-72
2023/02/01 05:53:37;;;;;;;3.73;3.40;;;4.00;99.90;;;;;;5030911;28;20253;-74
2023/02/01 05:56:03;;;;;;;3.40;3.10;;;4.00;99.90;;;;;;5026168;28;20451;-74
2023/02/01 05:58:29;;;;;;;4.30;3.30;;;3.90;99.90;;;;;;5017985;28;20211;-74
2023/02/01 06:00:55;;;;;;;4.30;3.80;;;3.90;99.90;;;;;;5029590;28;20532;-73
2023/02/01 06:03:20;;;;;;;4.00;3.57;;;3.80;99.90;;;;;;5031120;28;20523;-75
2023/02/01 06:05:46;;;;;;;3.80;3.50;;;3.80;99.90;;;;;;5025169;28;20180;-73
2023/02/01 06:08:13;;;;;;;3.90;3.40;;;3.70;99.90;;;;;;5028488;28;20198;-73
2023/02/01 06:10:38;;;;;;;4.23;3.07;;;3.70;99.90;;;;;;5023426;28;20437;-73
2023/02/01 06:13:04;;;;;;;4.57;3.73;;;3.70;99.90;;;;;;5031401;28;20464;-73
2023/02/01 06:15:31;;;;;;;4.40;3.90;;;3.60;99.90;;;;;;5029229;28;20608;-74
2023/02/01 06:17:56;;;;;;;7.00;5.83;;;3.60;99.90;;;;;;5025380;28;20213;-73
2023/02/01 06:20:22;;;;;;;5.87;4.10;;;3.60;99.90;;;;;;5021945;28;20501;-74
2023/02/01 06:22:47;;;;;;;7.50;3.73;;;3.60;99.90;;;;;;5022936;28;20202;-72
2023/02/01 06:25:13;;;;;;;4.47;3.57;;;3.60;99.90;;;;;;5026783;28;20186;-72
2023/02/01 06:27:39;;;;;;;6.10;4.43;;;3.60;99.90;;;;;;5013609;28;20225;-73
2023/02/01 06:30:06;;;;;;;4.53;3.80;;;3.60;99.90;;;;;;5017939;28;20228;-72
2023/02/01 06:32:31;;;;;;;7.93;4.17;;;3.60;99.90;;;;;;5025790;28;20182;-72
2023/02/01 06:34:57;;;;;;;3.87;3.10;;;3.60;99.90;;;;;;5026470;28;20442;-74
2023/02/01 06:37:30;;;;;;;3.90;3.47;;;3.70;99.90;;;;;;5026373;28;20313;-73
2023/02/01 06:39:55;;;;;;;4.17;3.77;;;3.70;99.90;;;;;;5028362;28;20480;-73
2023/02/01 06:42:21;;;;;;;7.00;4.10;;;3.70;99.90;;;;;;5025325;28;20793;-72
2023/02/01 06:44:47;;;;;;;5.87;4.40;;;3.70;99.90;;;;;;5019844;28;20186;-73
2023/02/01 06:47:12;;;;;;;7.43;4.40;;;3.80;99.90;;;;;;5026874;28;20659;-74
2023/02/01 06:49:37;;;;;;;6.30;4.00;;;3.80;99.90;;;;;;5020740;28;20202;-72
2023/02/01 06:52:03;;;;;;;6.20;4.63;;;3.90;99.90;;;;;;5023313;28;20691;-73
2023/02/01 06:54:32;;;;;;;4.43;4.10;;;3.90;99.90;;;;;;5027789;28;20304;-74
2023/02/01 06:56:57;;;;;;;6.20;4.30;;;3.90;99.90;;;;;;5022734;28;20190;-73
2023/02/01 06:59:23;;;;;;;7.90;3.67;;;4.00;99.90;;;;;;5025035;28;20847;-74
2023/02/01 07:01:48;;;;;;;4.67;4.27;;;3.90;99.90;;;;;;5015933;28;20205;-73
2023/02/01 07:04:14;;;;;;;4.37;3.83;;;3.90;99.90;;;;;;5026226;28;21419;-73
2023/02/01 07:06:40;;;;;;;7.53;4.70;;;3.90;99.90;;;;;;5016554;28;20261;-73
2023/02/01 07:09:06;;;;;;;4.30;3.90;;;4.00;99.90;;;;;;5017753;28;20212;-74
2023/02/01 07:11:32;;;;;;;6.17;4.80;;;4.00;99.90;;;;;;5015029;28;20178;-73
2023/02/01 07:13:58;;;;;;;4.43;4.00;;;4.00;99.90;;;;;;5025450;28;20463;-72
2023/02/01 07:16:24;;;;;;;8.53;4.13;;;4.00;99.90;;;;;;5025971;28;20193;-74
2023/02/01 07:18:51;;;;;;;9.97;4.30;;;4.00;99.90;;;;;;5027620;28;20461;-75
2023/02/01 07:21:17;;;;;;;3.80;3.20;;;4.00;99.90;;;;;;5023225;28;20953;-74
2023/02/01 07:23:43;;;;;;;4.50;3.53;;;4.10;99.90;;;;;;5033588;28;20579;-75
2023/02/01 07:26:12;;;;;;;4.13;3.73;;;4.10;99.90;;;;;;5024355;28;20924;-73
2023/02/01 07:28:38;;;;;;;5.00;3.53;;;4.00;99.90;;;;;;5011718;28;20723;-73
2023/02/01 07:31:15;;;;;;;8.20;3.40;;;4.10;99.90;;;;;;5014525;28;20432;-75
2023/02/01 07:33:41;;;;;;;6.60;3.73;;;4.10;99.90;;;;;;5032052;28;20146;-75
2023/02/01 07:36:12;;;;;;;4.87;4.47;;;4.10;99.90;;;;;;5031641;28;20428;-75
2023/02/01 07:38:37;;;;;;;3.60;3.30;;;4.10;99.90;;;;;;5011783;28;20492;-74
2023/02/01 07:41:05;;;;;;;4.70;4.07;;;4.10;99.90;;;;;;5011872;28;20430;-74
2023/02/01 07:43:31;;;;;;;4.13;3.73;;;4.10;99.90;;;;;;5012070;28;20163;-74
2023/02/01 07:45:57;;;;;;;3.60;3.30;;;4.10;99.90;;;;;;5012145;28;20453;-74
2023/02/01 07:48:23;;;;;;;6.13;3.63;;;4.20;99.90;;;;;;5012076;28;20895;-75
2023/02/01 07:51:00;;;;;;;4.33;3.57;;;4.20;99.90;;;;;;5012062;28;20633;-75
2023/02/01 07:53:28;;;;;;;7.23;5.47;;;4.20;99.90;;;;;;5012176;28;20398;-75
2023/02/01 07:55:53;;;;;;;6.60;5.10;;;4.20;99.90;;;;;;5010553;28;20445;-74
2023/02/01 07:58:19;;;;;;;5.03;4.27;;;4.30;99.90;;;;;;5010478;28;20816;-74
2023/02/01 08:03:28;;;;;;;5.10;4.40;;;4.30;99.90;;;;;;5012863;28;20182;-75
2023/02/01 08:05:57;;;;;;;4.93;4.47;;;4.30;99.90;;;;;;5025204;28;20440;-74
2023/02/01 08:08:23;;;;;;;5.43;4.30;;;4.30;99.90;;;;;;5028290;28;20206;-75
2023/02/01 08:10:49;;;;;;;5.07;4.50;;;4.30;99.90;;;;;;5034324;28;20425;-75
2023/02/01 08:13:15;;;;;;;4.43;4.00;;;4.30;99.90;;;;;;5040271;28;20437;-75
2023/02/01 08:15:40;;;;;;;8.50;4.70;;;4.30;99.90;;;;;;5035355;28;20429;-76
2023/02/01 08:18:06;;;;;;;5.70;5.20;;;4.30;99.90;;;;;;5031779;28;20623;-75
2023/02/01 08:20:31;;;;;;;4.13;3.73;;;4.40;99.90;;;;;;5032722;28;20273;-75
2023/02/01 08:22:57;;;;;;;5.33;4.17;;;4.40;99.90;;;;;;5035010;28;20294;-75
2023/02/01 08:25:23;;;;;;;7.90;5.87;;;4.50;99.90;;;;;;5035182;28;20174;-75
2023/02/01 08:27:49;;;;;;;4.47;4.07;;;4.50;99.90;;;;;;5043255;28;20201;-75
2023/02/01 08:30:15;;;;;;;4.87;4.20;;;4.40;99.90;;;;;;5052612;28;20499;-75
2023/02/01 08:32:41;;;;;;;5.57;4.20;;;4.50;99.90;;;;;;5055032;28;20516;-75
2023/02/01 08:35:08;;;;;;;4.17;3.80;;;4.50;99.90;;;;;;5052574;28;20170;-75
2023/02/01 08:37:33;;;;;;;4.83;4.33;;;4.60;99.90;;;;;;5034905;28;20265;-75
2023/02/01 08:39:59;;;;;;;5.00;4.50;;;4.60;99.90;;;;;;5034017;28;20555;-75
2023/02/01 08:45:09;;;;;;;8.17;4.60;;;4.80;99.90;;;;;;5034917;28;20180;-75
2023/02/01 08:47:35;;;;;;;10.47;6.27;;;5.10;99.90;;;;;;5041682;28;20519;-75
2023/02/01 08:50:01;;;;;;;10.30;3.93;;;5.40;99.90;;;;;;5053903;28;20416;-75
2023/02/01 08:52:26;;;;;;;5.47;4.90;;;5.60;99.90;;;;;;5054573;28;20711;-75
2023/02/01 08:54:52;;;;;;;4.63;3.30;;;5.70;99.90;;;;;;5054638;28;20181;-75
2023/02/01 08:57:17;;;;;;;7.73;4.23;;;5.60;99.90;;;;;;5048885;28;20247;-75
2023/02/01 08:59:44;;;;;;;5.23;4.13;;;5.60;99.90;;;;;;5053861;28;20282;-75
2023/02/01 09:02:13;;;;;;;7.07;4.00;;;5.60;99.90;;;;;;5054554;28;20166;-75
2023/02/01 09:04:39;;;;;;;8.57;5.00;;;5.60;99.90;;;;;;5054346;28;20797;-75
2023/02/01 09:07:05;;;;;;;4.77;3.83;;;5.60;99.90;;;;;;5051833;28;20416;-75
2023/02/01 09:09:30;;;;;;;7.50;3.70;;;5.60;99.90;;;;;;5040118;28;20198;-75
2023/02/01 09:11:56;;;;;;;10.97;3.57;;;5.60;99.90;;;;;;5034498;28;20193;-75
2023/02/01 09:14:21;;;;;;;5.53;3.13;;;5.60;99.90;;;;;;5034208;28;20170;-75
2023/02/01 09:16:47;;;;;;;9.23;4.37;;;5.60;99.90;;;;;;5031840;28;20193;-75
2023/02/01 09:19:12;;;;;;;5.20;4.50;;;5.60;99.90;;;;;;5033437;28;20206;-75
2023/02/01 09:21:38;;;;;;;11.27;3.90;;;5.50;99.90;;;;;;5034021;28;20197;-75
2023/02/01 09:24:04;;;;;;;7.13;4.33;;;5.60;99.90;;;;;;5034116;28;20579;-75
2023/02/01 09:26:29;;;;;;;6.73;3.90;;;5.60;99.90;;;;;;5032993;28;20190;-75
2023/02/01 09:28:55;;;;;;;10.97;4.10;;;5.50;99.90;;;;;;5032992;28;20190;-74
2023/02/01 09:31:20;;;;;;;7.63;3.33;;;5.50;99.90;;;;;;5032314;28;20597;-74
2023/02/01 09:33:46;;;;;;;6.33;4.33;;;5.50;99.90;;;;;;5034202;28;20188;-75
2023/02/01 09:36:11;;;;;;;7.53;3.30;;;5.50;99.90;;;;;;5033522;28;20186;-75
2023/02/01 09:38:37;;;;;;;6.40;4.40;;;5.60;99.90;;;;;;5030481;28;20643;-75
2023/02/01 09:41:23;;;;;;;6.70;3.13;;;5.60;99.90;;;;;;5033829;28;20273;-75
2023/02/01 09:43:59;;;;;;;4.83;4.00;;;5.70;99.90;;;;;;5033842;28;20495;-75
2023/02/01 09:46:28;;;;;;;5.93;3.97;;;5.80;99.90;;;;;;5033378;28;20425;-75
2023/02/01 09:48:57;;;;;;;9.03;2.83;;;5.90;99.90;;;;;;5051890;28;20963;-74
2023/02/01 09:51:32;;;;;;;8.20;3.90;;;6.00;99.90;;;;;;5053579;28;20499;-75
2023/02/01 09:54:11;;;;;;;12.00;5.77;;;6.00;99.90;;;;;;5053550;28;20971;-74
2023/02/01 09:56:46;;;;;;;6.43;3.50;;;6.10;99.90;;;;;;5048510;28;22004;-74
2023/02/01 09:59:50;;;;;;;10.47;3.40;;;6.20;99.90;;;;;;5032342;28;20496;-75
2023/02/01 10:02:26;;;;;;;6.57;4.10;;;6.50;99.90;;;;;;5033417;28;20502;-74
2023/02/01 10:04:55;;;;;;;5.80;3.20;;;6.60;99.90;;;;;;5033239;28;20471;-74
2023/02/01 10:07:51;;;;;;;8.90;3.37;;;6.50;99.90;;;;;;5038024;28;20428;-74
2023/02/01 10:10:43;;;;;;;12.23;4.10;;;6.50;99.90;;;;;;5012743;28;20517;-73
2023/02/01 10:13:43;;;;;;;10.17;3.60;;;6.50;99.90;;;;;;5013638;28;20777;-74
2023/02/01 10:16:27;;;;;;;6.20;3.40;;;6.40;99.90;;;;;;5013341;28;20429;-74
2023/02/01 10:19:26;;;;;;;10.47;3.70;;;6.40;99.90;;;;;;5037230;28;20463;-74
2023/02/01 10:22:00;;;;;;;10.63;3.47;;;6.40;99.90;;;;;;5032618;28;20428;-74
2023/02/01 10:24:37;;;;;;;9.90;2.83;;;6.40;99.90;;;;;;5032915;28;20421;-74
2023/02/01 10:27:17;;;;;;;8.93;4.60;;;6.30;99.90;;;;;;5031953;28;20413;-74
2023/02/01 10:29:47;;;;;;;12.27;3.63;;;6.30;99.90;;;;;;5031922;28;20795;-74
2023/02/01 10:32:19;;;;;;;10.10;4.10;;;6.30;99.90;;;;;;5032686;28;20520;-74
2023/02/01 10:34:52;;;;;;;7.00;3.67;;;6.30;99.90;;;;;;5032974;28;20425;-74
2023/02/01 10:37:27;;;;;;;7.63;3.23;;;6.30;99.90;;;;;;5037582;28;20499;-74
2023/02/01 10:39:59;;;;;;;8.93;3.50;;;6.30;99.90;;;;;;5051939;28;20447;-74
2023/02/01 10:42:29;;;;;;;8.73;3.70;;;6.40;99.90;;;;;;5052644;28;20443;-74
2023/02/01 10:44:59;;;;;;;9.30;3.53;;;6.50;99.90;;;;;;5038913;28;20432;-74
2023/02/01 10:47:24;;;;;;;13.77;4.70;;;6.50;99.90;;;;;;5030659;28;20413;-74
2023/02/01 10:49:57;;;;;;;6.33;3.17;;;6.40;99.90;;;;;;5031642;28;20429;-74
2023/02/01 10:52:30;;;;;;;10.90;2.90;;;6.50;99.90;;;;;;5032474;28;20178;-74
2023/02/01 10:54:56;;;;;;;9.00;3.40;;;6.50;99.90;;;;;;5032224;28;20431;-74
2023/02/01 10:57:25;;;;;;;8.97;3.60;;;6.50;99.90;;;;;;5030614;28;20420;-75
2023/02/01 10:59:51;;;;;;;7.10;2.63;;;6.40;99.90;;;;;;5031647;28;20201;-74
2023/02/01 11:02:27;;;;;;;6.13;2.80;;;6.40;99.90;;;;;;5032475;28;20504;-75
2023/02/01 11:05:01;;;;;;;6.77;3.03;;;6.50;99.90;;;;;;5032111;28;20421;-75
2023/02/01 11:07:28;;;;;;;8.77;3.50;;;6.60;99.90;;;;;;5037124;28;20443;-75
2023/02/01 11:09:56;;;;;;;9.23;3.10;;;6.60;99.90;;;;;;5043340;28;20417;-74
2023/02/01 11:12:35;;;;;;;8.60;3.37;;;6.80;99.90;;;;;;5030968;28;20432;-74
2023/02/01 11:15:14;;;;;;;7.30;3.30;;;7.20;99.90;;;;;;5032182;28;20421;-74
2023/02/01 11:17:43;;;;;;;6.43;3.33;;;7.70;99.90;;;;;;5041155;28;20416;-74
2023/02/01 11:20:32;;;;;;;10.07;3.73;;;7.80;99.90;;;;;;5051131;28;20459;-74
2023/02/01 11:22:57;;;;;;;6.27;3.80;;;7.50;99.90;;;;;;5039089;28;20432;-74
2023/02/01 11:25:24;;;;;;;8.33;2.87;;;7.20;99.90;;;;;;5031983;28;20435;-74
2023/02/01 11:27:53;;;;;;;8.20;4.10;;;7.00;99.90;;;;;;5029325;28;20240;-74
2023/02/01 11:30:40;;;;;;;6.23;3.60;;;6.90;99.90;;;;;;5031193;28;20447;-72
2023/02/01 11:33:12;;;;;;;4.80;2.93;;;6.80;99.90;;;;;;5031637;28;20479;-74
2023/02/01 11:35:39;;;;;;;5.83;3.50;;;6.70;99.90;;;;;;5031940;28;20425;-73
2023/02/01 11:38:22;;;;;;;4.43;2.80;;;6.70;99.90;;;;;;5029710;28;21045;-74
2023/02/01 11:40:48;;;;;;;10.77;3.73;;;6.80;99.90;;;;;;5036149;28;20432;-74
2023/02/01 11:43:23;;;;;;;8.47;3.40;;;6.80;99.90;;;;;;5036436;28;20539;-72
2023/02/01 11:45:59;;;;;;;11.03;3.33;;;6.80;99.90;;;;;;5036009;28;20417;-72
2023/02/01 11:48:27;;;;;;;12.53;3.93;;;6.90;99.90;;;;;;5023368;28;20444;-74
2023/02/01 11:51:23;;;;;;;8.33;3.23;;;6.70;99.90;;;;;;5036332;28;20416;-74
2023/02/01 11:54:34;;;;;;;7.27;3.50;;;6.60;99.90;;;;;;5035609;28;20443;-74
2023/02/01 11:57:17;;;;;;;9.40;3.10;;;6.70;99.90;;;;;;5010474;28;20459;-73
2023/02/01 11:59:55;;;;;;;4.83;2.80;;;6.80;99.90;;;;;;5012606;28;20563;-73
2023/02/01 12:02:32;;;;;;;9.67;4.03;;;6.90;99.90;;;;;;5029086;28;20937;-74
2023/02/01 12:05:07;;;;;;;10.50;3.87;;;6.80;99.90;;;;;;5035207;28;20416;-73
2023/02/01 12:07:40;;;;;;;8.60;3.20;;;6.70;99.90;;;;;;5048685;28;20466;-73
2023/02/01 12:10:21;;;;;;;8.50;3.17;;;6.70;99.90;;;;;;5054404;28;20443;-73
2023/02/01 12:13:00;;;;;;;8.17;3.30;;;6.60;99.90;;;;;;5055085;28;20423;-73
2023/02/01 12:15:49;;;;;;;9.10;3.03;;;6.60;99.90;;;;;;5038141;28;20421;-73
2023/02/01 12:18:39;;;;;;;5.23;2.70;;;6.70;99.90;;;;;;5030970;28;20449;-74
2023/02/01 12:21:18;;;;;;;5.00;2.40;;;6.80;99.90;;;;;;5035321;28;20429;-74
2023/02/01 12:23:56;;;;;;;6.83;3.43;;;6.90;99.90;;;;;;5033525;28;20428;-76
2023/02/01 12:26:36;;;;;;;8.70;3.23;;;6.90;99.90;;;;;;5033962;28;20492;-73
2023/02/01 12:29:21;;;;;;;5.17;3.00;;;6.70;99.90;;;;;;5033809;28;20983;-73
2023/02/01 12:32:06;;;;;;;14.17;3.10;;;6.70;99.90;;;;;;5034791;28;20423;-73
2023/02/01 12:35:03;;;;;;;7.57;2.70;;;6.50;99.90;;;;;;5035000;28;20894;-74
2023/02/01 12:38:06;;;;;;;5.77;2.60;;;6.40;99.90;;;;;;5021310;28;20428;-74
2023/02/01 12:40:54;;;;;;;7.93;3.10;;;6.40;99.90;;;;;;5034012;28;20551;-73
2023/02/01 12:43:42;;;;;;;12.13;3.80;;;6.40;99.90;;;;;;5043409;28;20455;-73
2023/02/01 12:46:16;;;;;;;15.50;3.80;;;6.30;99.90;;;;;;5054403;28;20420;-73
2023/02/01 12:49:04;;;;;;;8.40;2.83;;;6.30;99.90;;;;;;5051131;28;20447;-74
2023/02/01 12:51:37;;;;;;;9.80;3.20;;;6.40;99.90;;;;;;5054209;28;20958;-74
2023/02/01 12:54:26;;;;;;;11.18;3.00;;;6.40;99.90;;;;;;5053324;28;20519;-75
2023/02/01 12:57:02;;;;;;;7.67;3.10;;;6.30;99.90;;;;;;5038540;28;20209;-75
2023/02/01 12:59:49;;;;;;;8.90;3.73;;;6.30;99.90;;;;;;5033166;28;20463;-75
2023/02/01 13:02:37;;;;;;;9.63;2.90;;;6.30;99.90;;;;;;5034516;28;20409;-75
2023/02/01 13:05:11;;;;;;;9.10;3.10;;;6.30;99.90;;;;;;5034255;28;20427;-75
2023/02/01 13:07:46;;;;;;;10.70;4.23;;;6.30;99.90;;;;;;5031069;28;20494;-75
2023/02/01 13:10:32;;;;;;;8.67;2.90;;;6.40;99.90;;;;;;5033353;28;20416;-74
2023/02/01 13:13:25;;;;;;;9.60;2.40;;;6.40;99.90;;;;;;5034062;28;20421;-74
2023/02/01 13:16:24;;;;;;;7.30;3.37;;;6.40;99.90;;;;;;5033825;28;20455;-75
2023/02/01 13:18:52;;;;;;;6.67;3.63;;;6.30;99.90;;;;;;5031938;28;20564;-74
2023/02/01 13:21:29;;;;;;;4.93;2.50;;;6.20;99.90;;;;;;5032499;28;20429;-74
2023/02/01 13:23:57;;;;;;;6.60;2.40;;;6.20;99.90;;;;;;5034039;28;20420;-74
2023/02/01 13:26:22;;;;;;;7.70;2.83;;;6.10;99.90;;;;;;5032768;28;20448;-74
2023/02/01 13:28:56;;;;;;;12.10;3.17;;;6.10;99.90;;;;;;5031248;28;20487;-74
2023/02/01 13:31:51;;;;;;;7.63;3.80;;;6.10;99.90;;;;;;5033839;28;20170;-74
2023/02/01 13:34:42;;;;;;;5.20;2.70;;;6.10;99.90;;;;;;5033774;28;20417;-74
2023/02/01 13:37:39;;;;;;;7.53;3.10;;;6.10;99.90;;;;;;5033533;28;21019;-75
2023/02/01 13:40:30;;;;;;;7.83;2.57;;;6.20;99.90;;;;;;5052622;28;20456;-75
2023/02/01 13:43:05;;;;;;;5.73;2.73;;;6.30;99.90;;;;;;5046755;28;20441;-75